Aérodrome :
LOGIN :

S'inscrire | Disclaimer

   EN    FR    IT 

 










Légende :    VFR   VFR Marginal   IFR   IFR Intensif   IFR Très Intensif
Visi : 
Plafond : 
>= 8 km
>= 3000ft
5 à 8 km
1000 à 3000 ft
1500m à 5 km
500 à 1000 ft
800 à 1500m
200 à 500 ft
< 800m
< 200 ft
Symboles :   Orages  Brouillard  Fortes neiges  Fortes précipitations  Vent > 20 kt
SIGMETs :   Divers  Orages  Givrage  Turbulence  Onde Orograph.  Cendres Volcan.






- Altitude de l'aérodrome : 39 ft
- Code IATA : CTA


LICC - Catania Fontanarossa

DERNIER METAR :
  • 162350Z 06010KT 9999 BKN025 19/15 Q1010

METARs EXPIRÉS :
  • 162320Z 05009KT 020V080 9999 BKN025 19/16 Q1010
  • 162250Z 05011KT 030V090 9999 BKN025 20/16 Q1011
  • 162220Z 07010KT 9999 BKN030 19/16 Q1011
  • 162150Z 08010KT 9999 BKN030 19/16 Q1011
  • 162120Z 08010KT 9999 BKN030 19/16 Q1011
  • 162050Z 07010KT 9999 SCT030 19/16 Q1011

TAF TAF LICC
Valide du 17 à 00h jusqu'au 18 à 00h UTC


162300Z 1700/1724 08010KT 9999 SCT030
TEMPO 1700/1706 RA
BECMG 1710/1712 25016KT



MET'MAP, la Météo Aéronautique d'un coup d'oeil ! - Copyright ORBIFLY Décembre 2007 - Disclaimer

ORBIFLY MET'MAP TEAM :

Programmation & Développement : Alexandra Zaïnal
Conception & Développement : Baudouin d'Aumeries
Co-Programmation & Développement : Marc-Olivier Méhu
Soutien technique & logistique : Manuel Goepfert

Contact : metmap@orbifly.com




SOURCES & CREDITS :

   NOAA